Time;durP1;ratioP1;P1;durP2;ratioP2;P2;SDS_P1;SDS_P2;PMS_P1;PMS_P2;Temp;Humidity;BMP_temperature;BMP_pressure;BME280_temperature;BME280_humidity;BME280_pressure;Samples;Min_cycle;Max_cycle;Signal;HPM_P1;HPM_P2
2022/07/03 00:02:03;;;;;;;8.77;6.65;;;28.50;55.10;;;;;;5076568;28;20026;-80
2022/07/03 00:04:29;;;;;;;8.60;7.40;;;28.60;55.10;;;;;;5057536;28;20123;-80
2022/07/03 00:06:55;;;;;;;10.02;7.57;;;28.60;55.10;;;;;;5058238;28;20100;-82
2022/07/03 00:09:20;;;;;;;8.88;7.38;;;28.60;55.00;;;;;;5076437;28;20039;-82
2022/07/03 00:11:46;;;;;;;9.52;7.30;;;28.70;55.10;;;;;;5058855;28;20379;-80
2022/07/03 00:14:12;;;;;;;8.63;7.10;;;28.60;55.10;;;;;;5056909;28;20048;-80
2022/07/03 00:16:38;;;;;;;9.77;7.07;;;28.60;55.20;;;;;;5058318;28;20055;-81
2022/07/03 00:19:04;;;;;;;9.15;7.70;;;28.50;55.20;;;;;;5076357;28;20471;-81
2022/07/03 00:21:53;;;;;;;8.55;7.30;;;28.40;55.30;;;;;;5076375;28;20489;-81
2022/07/03 00:24:29;;;;;;;11.02;7.90;;;28.30;55.40;;;;;;5073269;28;20098;-82
2022/07/03 00:26:58;;;;;;;8.90;7.40;;;28.40;55.60;;;;;;5076246;28;20032;-80
2022/07/03 00:29:30;;;;;;;8.18;7.30;;;28.30;55.50;;;;;;5055454;28;20033;-79
2022/07/03 00:31:57;;;;;;;9.88;7.72;;;28.30;55.70;;;;;;5071987;28;20044;-79
2022/07/03 00:34:25;;;;;;;10.77;7.40;;;28.30;55.70;;;;;;5074935;28;20028;-80
2022/07/03 00:36:52;;;;;;;8.55;7.13;;;28.30;55.80;;;;;;5076210;28;20580;-80
2022/07/03 00:39:18;;;;;;;8.27;7.07;;;28.30;55.70;;;;;;5076052;28;20031;-80
2022/07/03 00:41:48;;;;;;;8.95;7.32;;;28.20;55.80;;;;;;5076067;28;20024;-81
2022/07/03 00:44:13;;;;;;;8.32;7.22;;;28.20;56.00;;;;;;5075877;28;20051;-79
2022/07/03 00:46:41;;;;;;;9.23;7.68;;;28.20;56.10;;;;;;5074116;28;20025;-80
2022/07/03 00:49:10;;;;;;;9.32;7.63;;;28.10;56.20;;;;;;5074858;28;20473;-81
2022/07/03 00:51:40;;;;;;;9.13;7.80;;;27.80;56.70;;;;;;5075205;28;20029;-80
2022/07/03 00:54:08;;;;;;;9.88;7.60;;;27.80;56.90;;;;;;5057877;28;20031;-81
2022/07/03 00:56:38;;;;;;;8.73;7.50;;;27.80;57.00;;;;;;5075873;28;20395;-82
2022/07/03 00:59:04;;;;;;;9.52;7.32;;;27.60;57.00;;;;;;5075628;28;20024;-82
2022/07/03 01:01:33;;;;;;;9.35;7.85;;;27.50;57.40;;;;;;5075814;28;20028;-80
2022/07/03 01:04:22;;;;;;;11.00;8.40;;;27.40;57.30;;;;;;5073575;28;20041;-81
2022/07/03 01:07:02;;;;;;;13.32;8.07;;;27.50;57.40;;;;;;5075532;28;20028;-81
2022/07/03 01:10:03;;;;;;;12.68;8.65;;;27.40;57.40;;;;;;5057789;28;20056;-80
2022/07/03 01:12:37;;;;;;;;;;;27.40;57.20;;;;;;4975358;28;20046;-83
2022/07/03 01:15:13;;;;;;;8.80;7.72;;;27.30;57.30;;;;;;4973890;28;20413;-82
2022/07/03 01:17:43;;;;;;;11.18;8.18;;;27.00;58.00;;;;;;4958922;28;20569;-81
2022/07/03 01:20:11;;;;;;;13.85;8.57;;;26.70;58.30;;;;;;4974250;28;20026;-80
2022/07/03 01:22:44;;;;;;;10.38;7.97;;;26.40;58.90;;;;;;4955351;29;20471;-80
2022/07/03 01:25:44;;;;;;;10.07;8.05;;;26.50;58.90;;;;;;4952958;28;20051;-81
2022/07/03 01:28:15;;;;;;;11.68;8.07;;;26.50;58.70;;;;;;4957848;28;20035;-82
2022/07/03 01:30:46;;;;;;;10.82;8.02;;;26.40;58.90;;;;;;4958529;28;20385;-82
2022/07/03 01:33:17;;;;;;;;;;;26.50;58.90;;;;;;4957763;28;20038;-82
2022/07/03 01:36:06;;;;;;;9.48;7.57;;;26.60;58.80;;;;;;4974548;28;19952;-83
2022/07/03 01:38:40;;;;;;;10.52;8.07;;;26.70;58.60;;;;;;4958498;28;20031;-81
2022/07/03 01:41:07;;;;;;;12.10;8.95;;;26.80;58.60;;;;;;4958951;28;20029;-81
2022/07/03 01:43:36;;;;;;;11.35;8.23;;;27.00;58.50;;;;;;4974307;28;20461;-79
2022/07/03 01:46:03;;;;;;;13.77;8.18;;;27.20;58.20;;;;;;4974426;28;20034;-84
2022/07/03 01:48:30;;;;;;;9.90;7.88;;;27.40;57.70;;;;;;4985921;28;20036;-80
2022/07/03 01:50:57;;;;;;;11.35;8.30;;;27.40;57.60;;;;;;5074359;28;20028;-82
2022/07/03 01:53:28;;;;;;;9.73;7.90;;;27.50;57.30;;;;;;5074129;28;20032;-79
2022/07/03 01:56:00;;;;;;;10.73;7.93;;;27.50;57.30;;;;;;5057043;28;20032;-80
2022/07/03 01:58:26;;;;;;;11.27;8.57;;;27.40;57.50;;;;;;5056940;28;20077;-80
2022/07/03 02:01:10;;;;;;;11.77;8.27;;;27.20;57.70;;;;;;5056634;28;20119;-81
2022/07/03 02:03:41;;;;;;;9.88;8.00;;;27.00;58.00;;;;;;5072460;28;20451;-82
2022/07/03 02:06:28;;;;;;;11.75;8.60;;;26.90;58.40;;;;;;5074411;28;20095;-82
2022/07/03 02:09:03;;;;;;;11.32;8.32;;;26.70;58.40;;;;;;5054462;28;20032;-79
2022/07/03 02:11:37;;;;;;;10.40;8.75;;;26.50;58.90;;;;;;5074051;28;20035;-81
2022/07/03 02:14:12;;;;;;;10.85;8.63;;;26.40;58.90;;;;;;5072317;28;20028;-80
2022/07/03 02:16:44;;;;;;;10.30;9.00;;;26.60;59.00;;;;;;5074225;28;20136;-81
2022/07/03 02:19:14;;;;;;;10.05;8.38;;;26.70;58.60;;;;;;5074754;28;20017;-83
2022/07/03 02:21:54;;;;;;;9.90;8.50;;;26.90;58.60;;;;;;5072324;28;20483;-81
2022/07/03 02:24:25;;;;;;;12.33;8.60;;;26.90;58.40;;;;;;5074408;28;20332;-84
2022/07/03 02:27:02;;;;;;;10.38;8.23;;;27.00;58.20;;;;;;5071354;28;20024;-80
2022/07/03 02:29:40;;;;;;;11.43;8.80;;;27.00;58.20;;;;;;5073620;28;20096;-80
2022/07/03 02:32:12;;;;;;;11.32;9.10;;;27.00;58.30;;;;;;5053374;28;20020;-81
2022/07/03 02:34:42;;;;;;;11.25;8.30;;;26.90;58.30;;;;;;5072192;28;20025;-81
2022/07/03 02:37:19;;;;;;;10.60;8.33;;;27.00;58.20;;;;;;5056467;28;20024;-81
2022/07/03 02:39:53;;;;;;;12.00;9.50;;;27.00;58.20;;;;;;5074208;28;20269;-80
2022/07/03 02:42:53;;;;;;;11.25;8.73;;;27.00;58.20;;;;;;5073941;28;20017;-81
2022/07/03 02:45:21;;;;;;;13.27;9.55;;;27.10;58.30;;;;;;5073822;28;20041;-83
2022/07/03 02:47:56;;;;;;;9.75;8.38;;;27.00;58.30;;;;;;5056460;28;20020;-85
2022/07/03 02:50:25;;;;;;;10.93;9.32;;;27.00;58.60;;;;;;5071756;28;20103;-79
2022/07/03 02:53:16;;;;;;;11.68;8.80;;;26.60;59.40;;;;;;5073490;28;20028;-80
2022/07/03 02:55:44;;;;;;;12.43;9.65;;;26.50;59.60;;;;;;5055997;28;20078;-80
2022/07/03 02:58:25;;;;;;;12.00;9.82;;;26.30;60.00;;;;;;5055726;28;20029;-80
2022/07/03 03:00:57;;;;;;;;;;;26.30;60.30;;;;;;5073086;28;20016;-79
2022/07/03 03:03:28;;;;;;;10.65;8.52;;;26.20;60.60;;;;;;5073495;28;19924;-89
2022/07/03 03:05:58;;;;;;;11.05;9.15;;;26.30;60.30;;;;;;5073579;28;20028;-80
2022/07/03 03:08:35;;;;;;;11.73;9.15;;;26.50;60.20;;;;;;5072996;28;20048;-79
2022/07/03 03:11:11;;;;;;;11.18;9.40;;;26.70;60.00;;;;;;5074165;28;20064;-84
2022/07/03 03:13:38;;;;;;;12.23;9.45;;;26.70;59.70;;;;;;5073445;28;20096;-80
2022/07/03 03:16:10;;;;;;;11.63;9.00;;;26.90;59.60;;;;;;5072157;28;20032;-79
2022/07/03 03:18:41;;;;;;;10.38;8.27;;;26.90;59.80;;;;;;5064481;28;20073;-83
2022/07/03 03:21:12;;;;;;;12.43;9.00;;;26.80;59.80;;;;;;5055892;28;20066;-81
2022/07/03 03:23:54;;;;;;;11.10;9.00;;;26.80;59.80;;;;;;5054640;28;20491;-80
2022/07/03 03:26:31;;;;;;;10.50;9.35;;;26.80;59.80;;;;;;5055442;28;20056;-80
2022/07/03 03:28:59;;;;;;;11.75;8.90;;;26.80;59.80;;;;;;5055329;28;20162;-88
2022/07/03 03:31:24;;;;;;;10.15;8.75;;;26.90;59.80;;;;;;5073128;28;20021;-82
2022/07/03 03:33:51;;;;;;;11.68;9.00;;;27.00;59.40;;;;;;5072680;28;20040;-79
2022/07/03 03:36:19;;;;;;;10.15;8.77;;;26.90;59.80;;;;;;5072739;28;20031;-79
2022/07/03 03:38:45;;;;;;;11.23;9.00;;;27.00;59.40;;;;;;5071755;28;20020;-80
2022/07/03 03:41:11;;;;;;;13.18;9.43;;;27.10;59.40;;;;;;5055036;28;20028;-79
2022/07/03 03:43:37;;;;;;;10.93;8.80;;;27.30;59.20;;;;;;5054377;28;20356;-79
2022/07/03 03:46:04;;;;;;;12.27;8.75;;;27.40;58.90;;;;;;5054840;28;20479;-80
2022/07/03 03:48:32;;;;;;;11.57;8.98;;;27.40;58.90;;;;;;5073153;28;20134;-80
2022/07/03 03:50:58;;;;;;;11.43;8.75;;;27.40;59.10;;;;;;5073016;28;20426;-79
2022/07/03 03:53:26;;;;;;;10.85;9.18;;;27.40;59.10;;;;;;5068738;28;20115;-81
2022/07/03 03:56:02;;;;;;;12.88;9.40;;;27.40;59.30;;;;;;5073256;28;20024;-81
2022/07/03 03:58:33;;;;;;;11.30;8.75;;;27.40;59.50;;;;;;5073148;28;20029;-88
2022/07/03 04:01:03;;;;;;;12.48;9.45;;;27.40;59.30;;;;;;5071702;28;20017;-83
2022/07/03 04:03:30;;;;;;;10.82;8.45;;;27.50;59.30;;;;;;5072228;28;20533;-93
2022/07/03 04:05:56;;;;;;;10.68;9.13;;;27.50;59.30;;;;;;5073060;28;20504;-81
2022/07/03 04:08:23;;;;;;;12.43;8.90;;;27.50;59.20;;;;;;5072806;28;20029;-85
2022/07/03 04:10:49;;;;;;;10.77;8.50;;;27.60;58.90;;;;;;5073325;28;20535;-94
2022/07/03 04:13:16;;;;;;;13.93;8.27;;;27.60;58.80;;;;;;5055548;28;20166;-86
2022/07/03 04:15:42;;;;;;;10.77;8.38;;;27.50;59.10;;;;;;5055149;28;20057;-82
2022/07/03 04:18:08;;;;;;;10.93;8.30;;;27.50;59.00;;;;;;5070092;28;20051;-87
2022/07/03 04:20:35;;;;;;;12.95;8.60;;;27.60;59.10;;;;;;5056079;28;20371;-79
2022/07/03 04:23:00;;;;;;;12.75;8.88;;;27.70;58.90;;;;;;5072272;28;20035;-81
2022/07/03 04:25:27;;;;;;;11.15;8.20;;;27.90;58.90;;;;;;5054731;28;20033;-82
2022/07/03 04:27:53;;;;;;;10.07;8.32;;;27.90;58.50;;;;;;5075356;28;20024;-80
2022/07/03 04:30:19;;;;;;;9.75;8.23;;;28.00;58.30;;;;;;5058670;28;20021;-80
2022/07/03 04:32:46;;;;;;;9.98;8.20;;;28.10;58.20;;;;;;5058796;28;20085;-85
2022/07/03 04:35:12;;;;;;;9.57;7.47;;;28.20;58.10;;;;;;5058581;28;20025;-81
2022/07/03 04:37:38;;;;;;;10.05;7.85;;;28.30;57.80;;;;;;5076034;28;20107;-80
2022/07/03 04:40:04;;;;;;;11.73;8.35;;;28.20;57.90;;;;;;5058301;28;20104;-81
2022/07/03 04:42:30;;;;;;;8.77;7.75;;;28.20;58.00;;;;;;5072357;28;20033;-80
2022/07/03 04:44:55;;;;;;;9.68;7.80;;;28.30;58.20;;;;;;5075689;28;20032;-80
2022/07/03 04:47:21;;;;;;;10.10;8.15;;;28.40;57.80;;;;;;5058303;28;20137;-81
2022/07/03 04:49:47;;;;;;;11.73;8.13;;;28.50;57.70;;;;;;5058023;28;20064;-81
2022/07/03 04:52:13;;;;;;;9.68;7.97;;;28.70;57.60;;;;;;5057900;28;20021;-80
2022/07/03 04:54:38;;;;;;;9.82;7.65;;;28.80;57.30;;;;;;5075564;28;20494;-81
2022/07/03 04:57:05;;;;;;;11.15;7.63;;;28.90;57.30;;;;;;5067536;28;20099;-80
2022/07/03 04:59:30;;;;;;;9.80;7.90;;;28.90;57.20;;;;;;5075500;28;20032;-80
2022/07/03 05:01:56;;;;;;;9.63;8.05;;;29.10;57.10;;;;;;5074384;28;20039;-80
2022/07/03 05:04:22;;;;;;;9.68;7.75;;;29.20;57.30;;;;;;5056623;28;20115;-80
2022/07/03 05:06:48;;;;;;;13.07;8.25;;;29.30;56.90;;;;;;5073869;28;20383;-81
2022/07/03 05:09:14;;;;;;;11.27;7.20;;;29.20;57.20;;;;;;5074401;28;20032;-79
2022/07/03 05:11:41;;;;;;;9.73;7.82;;;29.40;56.90;;;;;;5072521;28;20031;-80
2022/07/03 05:14:07;;;;;;;10.32;7.97;;;29.50;56.70;;;;;;5074847;28;20067;-80
2022/07/03 05:16:33;;;;;;;11.98;8.05;;;29.70;56.20;;;;;;5075162;28;20017;-81
2022/07/03 05:18:59;;;;;;;10.82;7.43;;;29.80;56.40;;;;;;5075333;28;20071;-81
2022/07/03 05:21:25;;;;;;;10.40;7.65;;;29.80;56.10;;;;;;5072181;28;20032;-81
2022/07/03 05:23:51;;;;;;;11.80;7.78;;;29.60;56.50;;;;;;5056194;28;20048;-81
2022/07/03 05:26:17;;;;;;;8.60;7.68;;;29.70;56.20;;;;;;5075179;28;20027;-81
2022/07/03 05:28:42;;;;;;;11.27;8.48;;;29.90;55.10;;;;;;5075791;28;20028;-83
2022/07/03 05:31:08;;;;;;;15.63;8.10;;;29.90;55.30;;;;;;5075530;28;20029;-82
2022/07/03 05:33:34;;;;;;;10.55;8.35;;;29.60;55.50;;;;;;5073366;28;20025;-84
2022/07/03 05:36:00;;;;;;;12.50;8.30;;;29.50;55.80;;;;;;4358224;28;10000472;-81
2022/07/03 05:41:12;;;;;;;10.77;8.50;;;29.70;55.20;;;;;;5072749;28;20226;-80
2022/07/03 05:43:38;;;;;;;10.73;8.30;;;29.10;56.40;;;;;;5072318;28;20122;-85
2022/07/03 05:46:04;;;;;;;11.40;7.90;;;29.30;56.60;;;;;;5055038;28;20020;-83
2022/07/03 05:48:30;;;;;;;13.23;7.95;;;29.60;56.00;;;;;;5071465;28;20024;-79
2022/07/03 05:50:56;;;;;;;10.82;7.95;;;30.00;55.30;;;;;;5054068;28;20499;-82
2022/07/03 05:53:22;;;;;;;9.50;7.70;;;30.20;55.70;;;;;;5054621;28;20036;-81
2022/07/03 05:55:48;;;;;;;7.95;7.15;;;30.10;56.10;;;;;;5072277;28;20021;-82
2022/07/03 05:58:14;;;;;;;8.25;7.10;;;29.70;56.70;;;;;;5071280;28;20746;-86
2022/07/03 06:00:40;;;;;;;10.50;7.50;;;29.50;57.10;;;;;;5073459;28;20031;-83
2022/07/03 06:03:06;;;;;;;8.25;7.05;;;29.80;57.30;;;;;;5074217;28;20032;-82
2022/07/03 06:05:32;;;;;;;16.45;7.57;;;30.10;56.80;;;;;;5055973;28;20475;-82
2022/07/03 06:07:58;;;;;;;14.73;7.60;;;30.10;56.60;;;;;;5072158;28;20013;-81
2022/07/03 06:10:24;;;;;;;11.00;7.97;;;30.70;56.30;;;;;;5068719;28;20028;-84
2022/07/03 06:12:50;;;;;;;9.00;7.53;;;31.30;55.90;;;;;;5054903;28;20079;-81
2022/07/03 06:15:16;;;;;;;9.75;7.20;;;31.30;54.80;;;;;;5071877;28;20024;-81
2022/07/03 06:17:43;;;;;;;10.20;6.88;;;31.60;54.70;;;;;;5054188;28;20470;-83
2022/07/03 06:20:10;;;;;;;7.75;6.82;;;31.50;54.80;;;;;;5071680;28;20013;-83
2022/07/03 06:22:37;;;;;;;9.02;7.47;;;31.50;55.00;;;;;;5054563;28;20368;-86
2022/07/03 06:25:03;;;;;;;7.93;6.95;;;31.70;54.70;;;;;;5054329;28;20147;-86
2022/07/03 06:27:29;;;;;;;9.30;7.10;;;32.00;53.70;;;;;;5053636;28;20024;-89
2022/07/03 06:29:55;;;;;;;9.05;6.68;;;31.90;54.30;;;;;;5056346;28;20031;-91
2022/07/03 06:32:21;;;;;;;8.50;6.90;;;31.80;54.70;;;;;;5056179;28;20067;-83
2022/07/03 06:34:47;;;;;;;11.57;7.32;;;31.30;54.50;;;;;;5073211;28;20036;-89
2022/07/03 06:37:13;;;;;;;9.10;7.13;;;30.90;55.90;;;;;;5055675;28;20032;-89
2022/07/03 06:39:39;;;;;;;11.52;7.05;;;31.20;55.00;;;;;;5054488;28;20024;-82
2022/07/03 06:42:05;;;;;;;8.10;6.82;;;31.70;54.00;;;;;;5072271;28;20028;-87
2022/07/03 06:44:31;;;;;;;9.05;7.25;;;31.70;53.80;;;;;;5054982;28;20368;-83
2022/07/03 06:46:57;;;;;;;8.13;7.03;;;31.80;53.90;;;;;;5071175;28;20490;-88
2022/07/03 06:49:23;;;;;;;8.15;6.47;;;32.20;53.70;;;;;;5070471;28;20047;-89
2022/07/03 06:51:50;;;;;;;7.18;6.38;;;32.30;53.20;;;;;;5035616;28;20036;-81
2022/07/03 06:54:16;;;;;;;8.10;6.55;;;32.10;52.40;;;;;;5053443;28;20536;-82
2022/07/03 06:56:42;;;;;;;8.32;6.35;;;31.50;53.20;;;;;;5054981;28;20087;-84
2022/07/03 06:59:10;;;;;;;10.10;6.85;;;31.00;55.00;;;;;;5055473;28;20084;-84
2022/07/03 07:01:36;;;;;;;8.15;7.00;;;31.10;55.90;;;;;;5047382;28;20459;-90
2022/07/03 07:04:02;;;;;;;10.98;7.43;;;31.80;55.40;;;;;;5073828;28;20051;-90
2022/07/03 07:06:28;;;;;;;7.47;6.60;;;32.20;54.20;;;;;;5056534;28;20025;-88
2022/07/03 07:08:54;;;;;;;11.98;6.75;;;32.70;54.40;;;;;;5054156;28;20024;-88
2022/07/03 07:11:20;;;;;;;11.13;7.57;;;33.00;53.40;;;;;;5055401;28;20028;-87
2022/07/03 07:13:46;;;;;;;8.75;6.95;;;32.30;54.10;;;;;;5054785;28;20055;-81
2022/07/03 07:16:11;;;;;;;12.05;7.10;;;31.80;55.00;;;;;;5070959;28;20047;-81
2022/07/03 07:18:40;;;;;;;7.57;6.80;;;32.20;55.90;;;;;;5062833;28;20055;-87
2022/07/03 07:21:06;;;;;;;7.78;6.32;;;32.70;54.40;;;;;;5052582;28;20459;-80
2022/07/03 07:23:32;;;;;;;10.07;6.65;;;32.00;55.00;;;;;;5065175;28;20049;-86
2022/07/03 07:25:58;;;;;;;9.35;6.78;;;31.40;56.40;;;;;;5052556;28;20024;-90
2022/07/03 07:28:23;;;;;;;8.55;6.53;;;31.80;55.30;;;;;;5054313;28;20036;-91
2022/07/03 07:30:49;;;;;;;8.07;6.63;;;32.30;55.30;;;;;;5074376;28;20495;-86
2022/07/03 07:33:15;;;;;;;7.13;6.25;;;32.90;54.50;;;;;;5073427;28;20024;-76
2022/07/03 07:35:40;;;;;;;9.65;6.80;;;33.30;54.30;;;;;;5072414;28;20110;-81
2022/07/03 07:38:06;;;;;;;8.27;6.70;;;32.90;53.00;;;;;;5054716;28;20463;-79
2022/07/03 07:40:32;;;;;;;9.65;7.00;;;31.90;54.70;;;;;;5058413;28;20033;-89
2022/07/03 07:42:57;;;;;;;7.57;6.32;;;31.50;56.10;;;;;;5072033;28;20485;-80
2022/07/03 07:45:23;;;;;;;10.43;6.88;;;31.60;56.00;;;;;;5073777;28;20047;-93
2022/07/03 07:47:49;;;;;;;9.18;6.20;;;32.10;54.70;;;;;;5055007;28;20027;-79
2022/07/03 07:50:15;;;;;;;7.70;6.60;;;32.40;53.40;;;;;;5072625;28;20104;-85
2022/07/03 07:52:40;;;;;;;10.63;6.63;;;31.90;54.50;;;;;;5072303;28;20373;-87
2022/07/03 07:55:07;;;;;;;11.73;6.40;;;32.20;54.50;;;;;;5072776;28;20407;-86
2022/07/03 07:57:40;;;;;;;10.35;6.97;;;32.70;54.30;;;;;;5072953;28;20414;-83
2022/07/03 08:00:08;;;;;;;8.15;6.30;;;33.20;54.10;;;;;;5073120;28;20029;-83
2022/07/03 08:05:37;;;;;;;8.57;6.63;;;33.30;53.70;;;;;;5077421;28;20055;-84
2022/07/03 08:08:11;;;;;;;8.85;6.10;;;33.40;54.00;;;;;;5077028;28;20517;-86
2022/07/03 08:10:50;;;;;;;10.40;6.10;;;33.80;53.50;;;;;;5076689;28;20071;-88
2022/07/03 08:13:18;;;;;;;7.15;6.03;;;34.00;52.90;;;;;;5076789;28;20016;-83
2022/07/03 08:15:44;;;;;;;6.43;5.80;;;34.40;52.00;;;;;;5076059;28;20388;-81
2022/07/03 08:18:10;;;;;;;7.28;6.43;;;34.60;52.30;;;;;;5058637;28;20475;-87
2022/07/03 08:20:37;;;;;;;9.82;5.97;;;34.60;52.80;;;;;;5075598;28;20032;-76
2022/07/03 08:23:04;;;;;;;9.77;5.95;;;34.60;51.90;;;;;;5076105;28;20028;-82
2022/07/03 08:25:30;;;;;;;7.15;6.40;;;34.70;51.70;;;;;;5076388;28;20738;-82
2022/07/03 08:27:59;;;;;;;8.35;6.13;;;35.00;52.00;;;;;;5076675;28;20031;-86
2022/07/03 08:30:25;;;;;;;7.65;6.10;;;35.00;51.50;;;;;;5058673;28;20054;-82
2022/07/03 08:32:53;;;;;;;7.03;6.20;;;34.70;52.40;;;;;;5076460;28;20371;-86
2022/07/03 08:35:19;;;;;;;7.63;5.90;;;34.80;52.60;;;;;;5076906;28;20101;-83
2022/07/03 08:37:47;;;;;;;9.50;6.45;;;34.90;51.00;;;;;;5059647;28;20052;-83
2022/07/03 08:40:14;;;;;;;7.82;6.57;;;34.70;51.10;;;;;;5076865;28;20051;-88
2022/07/03 08:42:52;;;;;;;9.27;5.57;;;34.80;50.30;;;;;;5076762;28;20017;-90
2022/07/03 08:45:20;;;;;;;7.63;5.75;;;34.30;49.00;;;;;;5076601;28;20091;-83
2022/07/03 08:47:49;;;;;;;7.00;5.38;;;34.50;50.60;;;;;;4359781;28;10000584;-79
2022/07/03 08:50:18;;;;;;;8.30;5.43;;;34.60;49.70;;;;;;5075315;28;20039;-81
2022/07/03 08:52:45;;;;;;;7.32;5.75;;;34.70;49.50;;;;;;5057964;28;20028;-81
2022/07/03 08:55:13;;;;;;;9.40;5.20;;;35.00;50.30;;;;;;5075987;28;20028;-86
2022/07/03 08:57:43;;;;;;;6.22;5.40;;;35.20;48.80;;;;;;5076700;28;20028;-87
2022/07/03 09:00:13;;;;;;;7.07;6.00;;;35.40;49.30;;;;;;5076456;28;20028;-81
2022/07/03 09:02:43;;;;;;;9.45;5.85;;;35.70;49.40;;;;;;5057923;28;20460;-78
2022/07/03 09:05:10;;;;;;;10.70;6.20;;;35.60;49.40;;;;;;5075543;28;20036;-82
2022/07/03 09:07:38;;;;;;;8.20;5.82;;;35.40;49.50;;;;;;5076044;28;20021;-83
2022/07/03 09:10:07;;;;;;;7.10;6.13;;;35.40;49.60;;;;;;5076254;28;20443;-82
2022/07/03 09:12:34;;;;;;;9.30;6.30;;;35.40;48.80;;;;;;5075537;28;20069;-88
2022/07/03 09:15:09;;;;;;;8.40;5.50;;;35.50;49.60;;;;;;5076412;28;20099;-87
2022/07/03 09:17:35;;;;;;;7.32;5.10;;;35.60;50.50;;;;;;5076307;28;20017;-85
2022/07/03 09:20:05;;;;;;;8.05;5.55;;;35.60;48.60;;;;;;5075949;28;20047;-81
2022/07/03 09:22:35;;;;;;;9.20;5.90;;;35.70;48.40;;;;;;5058453;28;20029;-84
2022/07/03 09:25:13;;;;;;;7.25;5.28;;;35.90;48.10;;;;;;5076074;28;20434;-88
2022/07/03 09:27:53;;;;;;;9.93;5.38;;;36.00;47.50;;;;;;5058584;28;20025;-87
2022/07/03 09:30:19;;;;;;;7.67;6.93;;;36.00;46.50;;;;;;5075807;28;20067;-92
2022/07/03 09:32:46;;;;;;;6.93;4.80;;;35.80;46.90;;;;;;5075735;28;20020;-86
2022/07/03 09:35:23;;;;;;;6.50;5.05;;;36.00;46.60;;;;;;5076301;28;20024;-83
2022/07/03 09:38:01;;;;;;;6.53;4.65;;;36.20;46.20;;;;;;5075468;28;20393;-81
2022/07/03 09:40:48;;;;;;;8.00;4.57;;;36.30;45.90;;;;;;5057428;28;20079;-81
2022/07/03 09:43:14;;;;;;;9.23;4.70;;;36.10;46.10;;;;;;5074913;28;20024;-80
2022/07/03 09:45:56;;;;;;;6.10;4.15;;;35.80;46.90;;;;;;5074861;28;20119;-80
2022/07/03 09:48:30;;;;;;;9.10;4.05;;;36.00;45.70;;;;;;5074834;28;20032;-77
2022/07/03 09:51:17;;;;;;;6.63;3.85;;;36.30;44.30;;;;;;5056926;28;20017;-78
2022/07/03 09:53:50;;;;;;;6.93;3.92;;;36.00;44.80;;;;;;5075043;28;20063;-78
2022/07/03 09:56:17;;;;;;;7.85;4.40;;;35.90;45.50;;;;;;5075100;28;20020;-91
2022/07/03 09:59:18;;;;;;;8.85;4.72;;;35.90;46.50;;;;;;5075075;28;20356;-81
2022/07/03 10:01:46;;;;;;;6.90;4.30;;;36.40;47.30;;;;;;4994102;28;20034;-89
2022/07/03 10:04:14;;;;;;;5.60;4.10;;;36.70;46.00;;;;;;4993970;28;20049;-82
2022/07/03 10:06:56;;;;;;;5.47;4.10;;;36.90;45.20;;;;;;4977776;28;20026;-86
2022/07/03 10:09:25;;;;;;;5.82;3.60;;;37.10;44.90;;;;;;4994488;28;20666;-81
2022/07/03 10:11:52;;;;;;;5.78;3.72;;;37.10;44.90;;;;;;4978524;28;20033;-88
2022/07/03 10:14:21;;;;;;;6.15;3.63;;;37.20;43.80;;;;;;4994011;28;20037;-87
2022/07/03 10:16:47;;;;;;;5.85;3.30;;;37.30;45.40;;;;;;4994038;28;20105;-85
2022/07/03 10:19:19;;;;;;;5.32;3.55;;;37.00;44.40;;;;;;4993531;28;20038;-92
2022/07/03 10:22:04;;;;;;;6.93;3.65;;;36.90;43.70;;;;;;4994213;28;20088;-91
2022/07/03 10:24:30;;;;;;;6.90;3.00;;;37.00;43.90;;;;;;4993950;28;20104;-91
2022/07/03 10:26:58;;;;;;;6.60;3.30;;;37.30;43.20;;;;;;4977806;28;20393;-80
2022/07/03 10:29:26;;;;;;;8.95;3.30;;;37.20;42.50;;;;;;4978639;28;20406;-81
2022/07/03 10:31:52;;;;;;;6.10;3.47;;;37.30;43.80;;;;;;4994163;28;20033;-92
2022/07/03 10:34:24;;;;;;;7.00;3.58;;;37.30;44.50;;;;;;4993249;28;20030;-87
2022/07/03 10:37:03;;;;;;;6.07;3.38;;;37.20;44.50;;;;;;5072740;28;20047;-90
2022/07/03 10:39:48;;;;;;;5.13;3.45;;;37.20;43.40;;;;;;5055907;28;20028;-91
2022/07/03 10:45:08;;;;;;;5.20;3.00;;;37.30;44.30;;;;;;5074519;28;20078;-85
2022/07/03 10:47:46;;;;;;;6.30;3.00;;;37.30;43.10;;;;;;5056265;28;20438;-82
2022/07/03 10:50:17;;;;;;;6.65;3.00;;;37.40;42.00;;;;;;5074706;28;20475;-86
2022/07/03 10:52:46;;;;;;;4.47;3.13;;;37.50;43.60;;;;;;5074071;28;20052;-87
2022/07/03 10:55:13;;;;;;;4.57;2.85;;;37.80;44.60;;;;;;5074470;28;20032;-77
2022/07/03 10:57:40;;;;;;;4.78;3.00;;;38.00;44.20;;;;;;5074505;28;20096;-81
2022/07/03 11:00:11;;;;;;;4.97;3.35;;;38.10;44.70;;;;;;5073949;28;20028;-79
2022/07/03 11:02:45;;;;;;;5.53;3.20;;;38.00;43.10;;;;;;5076292;28;20020;-94
2022/07/03 11:05:22;;;;;;;4.53;3.00;;;37.80;42.70;;;;;;5051751;28;20040;-83
2022/07/03 11:07:51;;;;;;;6.78;3.25;;;37.50;42.40;;;;;;5056282;28;20025;-94
2022/07/03 11:10:16;;;;;;;7.13;3.08;;;37.50;44.60;;;;;;5056515;28;20127;-84
2022/07/03 11:12:59;;;;;;;8.30;3.10;;;37.60;43.70;;;;;;5073663;28;20490;-84
2022/07/03 11:15:38;;;;;;;5.75;3.05;;;37.50;44.40;;;;;;5073610;28;20023;-81
2022/07/03 11:18:25;;;;;;;6.03;3.30;;;37.60;44.30;;;;;;5073789;28;20430;-86
2022/07/03 11:20:51;;;;;;;5.13;3.15;;;37.70;44.30;;;;;;5073561;28;20095;-90
2022/07/03 11:23:33;;;;;;;17.05;3.70;;;37.70;44.70;;;;;;5055454;28;20230;-83
2022/07/03 11:26:21;;;;;;;6.88;3.03;;;37.80;44.20;;;;;;5056202;28;20510;-90
2022/07/03 11:28:46;;;;;;;5.53;3.00;;;38.20;44.20;;;;;;5073495;28;20044;-85
2022/07/03 11:31:16;;;;;;;3.80;3.03;;;38.30;43.20;;;;;;5056269;28;20368;-85
2022/07/03 11:33:53;;;;;;;6.32;3.65;;;38.30;44.30;;;;;;5055802;28;20475;-84
2022/07/03 11:36:22;;;;;;;4.82;3.45;;;38.30;44.20;;;;;;5073800;28;20032;-84
2022/07/03 11:39:09;;;;;;;5.03;3.15;;;38.30;45.50;;;;;;5055943;28;20048;-79
2022/07/03 11:41:35;;;;;;;5.30;3.47;;;38.40;44.20;;;;;;5073483;28;20025;-84
2022/07/03 11:44:06;;;;;;;5.47;3.20;;;38.10;44.70;;;;;;5072877;28;20404;-86
2022/07/03 11:46:37;;;;;;;4.63;3.13;;;38.10;43.90;;;;;;5073729;28;20406;-81
2022/07/03 11:49:12;;;;;;;5.60;3.20;;;38.20;44.70;;;;;;5073148;28;20098;-81
2022/07/03 11:51:40;;;;;;;7.82;3.20;;;38.10;43.90;;;;;;5073202;28;20021;-91
2022/07/03 11:54:06;;;;;;;7.05;3.10;;;38.10;45.10;;;;;;5073572;28;20040;-83
2022/07/03 11:56:35;;;;;;;5.43;3.03;;;38.10;45.60;;;;;;5072981;28;20418;-90
2022/07/03 11:59:05;;;;;;;5.22;3.10;;;38.00;44.30;;;;;;5072952;28;20059;-82
2022/07/03 12:01:32;;;;;;;;;;;37.80;44.30;;;;;;5073229;28;20052;-80
2022/07/03 12:04:24;;;;;;;5.97;3.10;;;37.90;44.50;;;;;;5073270;28;20436;-83
2022/07/03 12:06:51;;;;;;;5.55;2.88;;;37.80;43.60;;;;;;5073371;28;20021;-85
2022/07/03 12:09:29;;;;;;;6.07;3.30;;;37.70;44.40;;;;;;5073417;28;20541;-86
2022/07/03 12:11:58;;;;;;;5.13;2.85;;;37.70;43.80;;;;;;5073261;28;20063;-92
2022/07/03 12:14:44;;;;;;;4.50;3.00;;;37.80;44.30;;;;;;5056749;28;20020;-91
2022/07/03 12:17:15;;;;;;;4.93;2.88;;;38.10;43.80;;;;;;5072989;28;20020;-87
2022/07/03 12:19:55;;;;;;;6.35;2.83;;;38.10;43.00;;;;;;5055001;28;20028;-82
2022/07/03 12:22:24;;;;;;;4.53;2.65;;;38.10;44.00;;;;;;5055999;28;20070;-85
2022/07/03 12:24:57;;;;;;;6.75;2.85;;;38.20;43.20;;;;;;5073087;28;20053;-83
2022/07/03 12:27:24;;;;;;;5.13;2.83;;;38.00;42.80;;;;;;5073426;28;20024;-87
2022/07/03 12:29:51;;;;;;;13.18;3.10;;;37.70;43.50;;;;;;5054845;28;20024;-85
2022/07/03 12:32:17;;;;;;;4.10;2.65;;;37.50;43.60;;;;;;5055187;28;20056;-90
2022/07/03 12:34:43;;;;;;;4.45;2.70;;;37.50;43.60;;;;;;5054683;28;20451;-84
2022/07/03 12:37:10;;;;;;;4.25;2.50;;;37.70;43.50;;;;;;5072853;28;20021;-82
2022/07/03 12:39:48;;;;;;;8.13;3.10;;;37.60;44.10;;;;;;5072821;28;20096;-81
2022/07/03 12:42:23;;;;;;;7.25;2.70;;;37.80;44.90;;;;;;5073004;28;20039;-86
2022/07/03 12:45:00;;;;;;;6.57;3.10;;;37.90;44.10;;;;;;5073340;28;20063;-79
2022/07/03 12:47:29;;;;;;;4.68;2.95;;;37.90;43.60;;;;;;5055601;28;20031;-85
2022/07/03 12:50:00;;;;;;;4.82;2.80;;;37.70;43.60;;;;;;5076242;28;20494;-83
2022/07/03 12:52:26;;;;;;;6.63;2.75;;;37.60;44.40;;;;;;5076549;28;20423;-80
2022/07/03 12:54:52;;;;;;;4.50;3.45;;;37.50;43.80;;;;;;5076232;28;20510;-90
2022/07/03 13:00:05;;;;;;;8.27;3.00;;;37.70;43.90;;;;;;5076193;28;20569;-82
2022/07/03 13:02:32;;;;;;;4.18;2.88;;;37.80;44.80;;;;;;5076634;28;20016;-79
2022/07/03 13:05:02;;;;;;;5.65;2.80;;;37.90;44.60;;;;;;5075694;28;20094;-84
2022/07/03 13:07:31;;;;;;;7.03;2.78;;;37.90;44.30;;;;;;5076524;28;20039;-92
2022/07/03 13:10:03;;;;;;;4.13;3.35;;;38.10;43.60;;;;;;5075818;28;20083;-79